Latest Weather Observations for Goulburn Airport

IDN60901

Issued at 3:51 pm EST Sunday 20 August 2017 (issued every 10 minutes, with the page automatically refreshed every 10 minutes)

About weather observations | Map of Canberra area stations | Latest observations for Canberra area | Other Formats
Station Details ID: 070330 Name: GOULBURN AIRPORT AWS Lat: -34.81 Lon: 149.73 Height: 640.0 m
Data from the previous 72 hours. | See also: Recent months at Goulburn Airport
Date/Time
EST
Temp
°C
App
Temp
°C
Dew
Point
°C
Rel
Hum
%
Delta-T
°C
Wind Press
QNH
hPa
Press
MSL
hPa
Rain since
9am
mm
Dir  Spd
km/h
Gust
km/h
Spd
kts
Gust
kts
20/03:30pm 12.5 9.3 -0.7 40 5.6 SSW 6 15 3 8 1020.6 1021.4 0.0
20/03:00pm 11.8 8.3 -1.0 41 5.3 S 7 11 4 6 1020.5 1021.3 0.0
20/02:30pm 11.5 8.1 -2.0 39 5.5 S 6 11 3 6 1020.8 1021.7 0.0
20/02:00pm 11.0 7.0 -2.1 40 5.3 SSE 9 13 5 7 1021.2 1022.1 0.0
20/01:30pm 11.2 7.8 -1.9 40 5.3 WNW 6 13 3 7 1021.8 1022.6 0.0
20/01:00pm 10.9 7.3 -2.1 40 5.2 SW 7 15 4 8 1022.3 1023.2 0.0
20/12:30pm 10.6 7.7 -1.4 43 4.9 SW 4 9 2 5 1022.6 1023.5 0.0
20/12:00pm 9.8 6.1 -2.5 42 4.8 SSW 7 13 4 7 1023.0 1023.9 0.0
20/11:30am 8.6 5.0 -2.1 47 4.2 SSW 7 11 4 6 1023.4 1024.2 0.0
20/11:00am 8.0 3.7 -2.0 49 3.9 ESE 11 17 6 9 1023.5 1024.4 0.0
20/10:30am 6.9 3.5 -2.3 52 3.5 SSW 6 9 3 5 1023.9 1024.8 0.0
20/10:00am 5.9 2.4 -2.9 53 3.3 SSW 6 7 3 4 1024.3 1025.2 0.0
20/09:30am 5.0 1.6 -1.9 61 2.6 NNW 6 11 3 6 1024.4 1025.3 0.0
20/09:00am 3.5 0.0 -1.4 70 1.8 N 7 11 4 6 1024.7 1025.7 0.0
20/08:30am 2.1 -1.5 -1.9 75 1.5 NNW 7 11 4 6 1024.9 1025.8 0.0
20/08:00am -0.6 -3.7 -2.3 88 0.6 N 4 7 2 4 1024.6 1025.5 0.0
20/07:30am -3.3 -5.8 -4.0 95 0.1 CALM 0 0 0 0 1024.5 1025.4 0.0
20/07:00am -6.6 -9.5 -8.1 89 0.2 CALM 0 0 0 0 1023.9 1024.8 0.0
20/06:30am -6.5 -10.5 -7.9 90 0.2 N 6 6 3 3 1023.6 1024.5 0.0
20/06:00am -7.0 -10.0 -8.9 86 0.3 CALM 0 0 0 0 1023.6 1024.5 0.0
20/05:30am -5.5 -9.4 -6.9 90 0.2 N 6 7 3 4 1023.3 1024.1 0.0
20/05:00am -6.2 -10.8 -7.9 88 0.3 N 9 9 5 5 1023.1 1024.0 0.0
20/04:30am -6.0 -10.2 -7.8 87 0.3 N 7 9 4 5 1023.0 1023.9 0.0
20/04:00am -4.5 -8.9 -5.9 90 0.2 NNW 9 9 5 5 1022.9 1023.8 0.0
20/03:30am -5.6 -8.4 -7.3 88 0.3 CALM 0 0 0 0 1022.9 1023.8 0.0
20/03:00am -5.5 -9.7 -7.5 86 0.4 N 7 7 4 4 1022.8 1023.7 0.0
20/02:30am -4.2 -8.6 -6.2 86 0.4 N 9 13 5 7 1022.9 1023.8 0.0
20/02:00am -4.0 -8.0 -5.5 89 0.3 N 7 9 4 5 1022.8 1023.7 0.0
20/01:30am -5.2 -8.4 -7.0 87 0.3 SSW 2 7 1 4 1022.9 1023.8 0.0
20/01:00am -4.7 -7.5 -6.8 85 0.4 CALM 0 0 0 0 1022.9 1023.8 0.0
20/12:30am -3.0 -6.0 -5.3 84 0.6 SW 2 7 1 4 1022.9 1023.8 0.0
20/12:00am -2.4 -6.3 -4.7 84 0.6 N 7 7 4 4 1023.0 1023.9 0.0
 
Date/Time
EST
Temp
°C
App
Temp
°C
Dew
Point
°C
Rel
Hum
%
Delta-T
°C
Wind Press
QNH
hPa
Press
MSL
hPa
Rain since
9am
mm
Dir  Spd
km/h
Gust
km/h
Spd
kts
Gust
kts
19/11:30pm -4.6 -8.8 -7.4 81 0.6 NNW 7 11 4 6 1023.1 1024.0 0.0
19/11:00pm -2.2 -7.2 -4.5 84 0.7 SSW 13 17 7 9 1022.9 1023.8 0.0
19/10:30pm -4.1 -8.5 -6.2 85 0.5 SSE 9 11 5 6 1023.1 1024.0 0.0
19/10:00pm -2.6 -7.3 -5.1 83 0.7 SSW 11 13 6 7 1023.1 1024.0 0.0
19/09:30pm -0.5 -5.2 -5.3 70 1.5 SSW 11 15 6 8 1023.1 1024.0 0.0
19/09:00pm 2.5 -3.5 -3.4 65 2.1 SSW 19 30 10 16 1022.9 1023.8 0.0
19/08:58pm 3.1 -2.5 -2.8 65 2.1 SSW 17 30 9 16 1022.9 1023.8 0.0
19/08:30pm -1.9 -5.9 -5.6 76 1.1 SW 7 9 4 5 1022.8 1023.7 0.0
19/08:00pm 0.2 -4.0 -3.7 75 1.3 WSW 9 11 5 6 1022.4 1023.3 0.0
19/07:30pm -1.1 -5.4 -5.1 74 1.3 SSW 9 11 5 6 1022.1 1023.0 0.0
19/07:00pm 2.4 -3.3 -3.9 63 2.2 SSW 17 20 9 11 1021.9 1022.7 0.0
19/06:30pm 3.9 -2.2 -3.8 57 2.7 SW 19 22 10 12 1021.6 1022.4 0.0
19/06:00pm 4.9 -1.4 -3.9 53 3.1 SW 20 30 11 16 1021.0 1021.9 0.0
19/05:30pm 6.6 0.3 -4.2 46 3.9 SW 20 28 11 15 1020.6 1021.4 0.0
19/05:00pm 8.1 1.8 -4.3 41 4.6 SW 20 30 11 16 1020.2 1021.0 0.0
19/04:30pm 9.0 1.5 -4.2 39 4.9 SW 26 37 14 20 1019.9 1020.7 0.0
19/04:00pm 9.4 2.7 -4.5 37 5.2 WSW 22 35 12 19 1019.4 1020.3 0.0
19/03:30pm 9.5 2.5 -3.1 41 4.9 SW 24 35 13 19 1019.4 1020.3 0.0
19/03:00pm 9.8 2.1 -3.1 40 5.0 SW 28 39 15 21 1019.2 1020.0 0.0
19/02:30pm 9.0 1.7 -2.9 43 4.6 SW 26 39 14 21 1018.9 1019.7 0.0
19/02:00pm 9.3 2.3 -3.3 41 4.8 SW 24 39 13 21 1018.8 1019.6 0.0
19/01:30pm 10.1 2.5 -2.5 41 5.0 SSW 28 43 15 23 1018.7 1019.5 0.0
19/01:00pm 9.6 1.8 -4.0 38 5.1 SW 28 39 15 21 1018.6 1019.4 0.0
19/12:30pm 9.9 2.6 -3.0 40 5.0 SW 26 41 14 22 1018.8 1019.6 0.0
19/12:00pm 8.4 0.6 -4.1 41 4.7 SSW 28 43 15 23 1018.9 1019.7 0.0
19/11:30am 9.3 2.5 -2.0 45 4.5 SW 24 33 13 18 1018.7 1019.5 0.0
19/11:00am 8.4 1.1 -2.8 45 4.3 WSW 26 35 14 19 1018.9 1019.7 0.0
19/10:30am 7.2 -0.4 -2.5 50 3.7 SW 28 39 15 21 1018.8 1019.6 0.0
19/10:00am 6.7 0.2 0.4 64 2.6 W 24 32 13 17 1018.8 1019.6 0.0
19/09:30am 5.4 -1.4 0.6 71 1.9 W 26 35 14 19 1018.7 1019.5 0.0
19/09:00am 4.7 -2.4 1.2 78 1.4 W 28 37 15 20 1018.8 1019.6 0.4
19/08:30am 3.9 -2.1 0.9 81 1.2 W 22 30 12 16 1018.6 1019.4 0.4
19/08:00am 2.8 -3.2 0.9 87 0.8 W 22 32 12 17 1018.0 1018.8 0.4
19/07:30am 1.7 -4.1 0.1 89 0.6 W 20 28 11 15 1017.5 1018.3 0.4
19/07:00am 0.9 -4.7 -0.1 93 0.4 W 19 28 10 15 1017.0 1017.8 0.4
19/06:30am 0.6 -4.7 -0.5 92 0.4 WNW 17 24 9 13 1016.7 1017.4 0.4
19/06:00am 0.3 -3.2 -1.0 91 0.5 WSW 7 15 4 8 1016.2 1017.0 0.4
19/05:30am 0.4 -5.3 -0.9 91 0.5 W 19 24 10 13 1015.5 1016.3 0.4
19/05:00am 1.2 -3.7 -0.6 88 0.7 WNW 15 20 8 11 1015.5 1016.3 0.4
19/04:30am 1.4 -3.1 -0.5 87 0.7 WNW 13 17 7 9 1015.1 1015.8 0.4
19/04:00am 1.4 -4.4 -0.2 89 0.6 WNW 20 24 11 13 1014.5 1015.3 0.4
19/03:30am 1.2 -3.7 -0.7 87 0.7 W 15 20 8 11 1014.4 1015.2 0.4
19/03:00am 1.7 -4.5 -0.2 87 0.7 W 22 30 12 16 1014.2 1015.0 0.4
19/02:30am 2.3 -2.9 0.0 85 0.9 W 17 28 9 15 1014.0 1014.7 0.4
19/02:29am 2.2 -3.4 -0.1 85 0.9 W 19 28 10 15 1014.0 1014.7 0.4
19/02:00am 2.6 -2.2 0.0 83 1.0 W 15 20 8 11 1013.9 1014.6 0.4
19/01:30am 3.3 -3.9 0.7 83 1.0 WNW 28 52 15 28 1013.8 1014.5 0.4
19/01:25am 3.4 -4.5 0.8 83 1.0 WNW 32 61 17 33 1013.7 1014.4 0.4
19/01:24am 3.4 -4.7 0.8 83 1.0 WNW 33 61 18 33 1013.6 1014.3 0.4
19/01:16am 3.4 -5.9 0.6 82 1.1 WNW 39 61 21 33 1013.6 1014.3 0.4
19/01:07am 3.4 -4.6 0.6 82 1.1 NW 32 48 17 26 1013.6 1014.3 0.4
19/01:00am 3.5 -1.6 0.9 83 1.0 NW 17 28 9 15 1013.9 1014.6 0.4
19/12:30am 3.2 0.0 0.8 84 1.0 WNW 7 15 4 8 1013.9 1014.6 0.4
19/12:19am 3.2 -1.1 0.8 84 1.0 WNW 13 22 7 12 1013.6 1014.3 0.4
19/12:14am 3.1 -2.0 0.7 84 0.9 WNW 17 26 9 14 1013.6 1014.3 0.4
19/12:00am 3.2 -1.9 0.6 83 1.0 WNW 17 32 9 17 1013.5 1014.2 0.4
 
Date/Time
EST
Temp
°C
App
Temp
°C
Dew
Point
°C
Rel
Hum
%
Delta-T
°C
Wind Press
QNH
hPa
Press
MSL
hPa
Rain since
9am
mm
Dir  Spd
km/h
Gust
km/h
Spd
kts
Gust
kts
18/11:39pm 3.2 -0.8 0.4 82 1.1 WNW 11 22 6 12 1013.6 1014.3 0.4
18/11:30pm 3.4 -1.0 0.5 81 1.1 WSW 13 22 7 12 1013.6 1014.3 0.4
18/11:00pm 3.5 -3.7 0.6 81 1.2 WNW 28 43 15 23 1013.1 1013.9 0.4
18/10:30pm 3.8 -2.2 1.0 82 1.1 W 22 35 12 19 1013.4 1014.1 0.4
18/10:15pm 3.7 -4.4 0.9 82 1.1 W 33 52 18 28 1013.0 1013.8 0.4
18/10:00pm 3.8 -6.2 0.8 81 1.2 W 43 57 23 31 1012.7 1013.4 0.4
18/09:30pm 3.9 -5.3 1.3 83 1.1 WNW 39 57 21 31 1012.5 1013.2 0.4
18/09:05pm 4.1 -5.4 1.5 83 1.1 W 41 59 22 32 1012.7 1013.4 0.4
18/09:00pm 4.1 -5.4 1.5 83 1.1 W 41 56 22 30 1012.7 1013.4 0.4
18/08:38pm 4.0 -5.5 1.5 84 1.0 W 41 59 22 32 1012.5 1013.2 0.4
18/08:30pm 3.9 -5.3 1.4 84 1.0 W 39 54 21 29 1012.7 1013.4 0.4
18/08:13pm 3.7 -6.2 1.4 85 0.9 W 43 61 23 33 1012.4 1013.1 0.4
18/08:00pm 4.0 -6.1 1.5 84 1.0 W 44 61 24 33 1012.2 1012.9 0.4
18/07:51pm 3.9 -5.6 1.6 85 0.9 W 41 59 22 32 1012.0 1012.7 0.4
18/07:30pm 3.6 -5.1 1.8 88 0.7 W 37 50 20 27 1012.4 1013.1 0.4
18/07:06pm 3.6 -4.1 2.1 90 0.6 W 32 43 17 23 1012.2 1012.9 0.2
18/07:00pm 3.6 -4.1 2.1 90 0.6 WNW 32 44 17 24 1012.0 1012.7 0.2
18/06:30pm 3.5 -4.3 1.7 88 0.7 W 32 44 17 24 1012.5 1013.2 0.2
18/06:11pm 5.1 -3.3 1.4 77 1.5 W 35 57 19 31 1012.2 1012.9 0.0
18/06:00pm 5.5 -2.0 1.4 75 1.7 W 30 44 16 24 1011.8 1012.5 0.0
18/05:31pm 5.3 -4.0 0.7 72 1.9 W 39 57 21 31 1011.2 1011.9 0.0
18/05:30pm 5.2 -4.1 0.8 73 1.8 W 39 54 21 29 1011.2 1011.9 0.0
18/05:00pm 6.9 -3.2 0.4 63 2.7 W 43 67 23 36 1010.4 1011.1 0.0
18/04:31pm 6.5 -2.0 1.0 68 2.3 W 35 54 19 29 1009.9 1010.5 0.0
18/04:30pm 6.5 -1.9 1.4 70 2.1 W 35 46 19 25 1009.7 1010.4 0.0
18/04:21pm 6.7 -2.9 1.4 69 2.2 W 41 59 22 32 1009.6 1010.3 0.0
18/04:00pm 7.2 -1.5 1.7 68 2.3 W 37 54 20 29 1009.4 1010.1 0.0
18/03:30pm 7.4 -4.0 0.4 61 2.9 W 50 70 27 38 1009.1 1009.8 0.0
18/03:00pm 8.5 -3.7 0.2 56 3.4 W 54 72 29 39 1008.9 1009.6 0.0
18/02:30pm 8.8 -3.3 0.8 57 3.4 W 54 72 29 39 1008.7 1009.3 0.0
18/02:08pm 8.3 -2.5 1.9 64 2.8 W 48 67 26 36 1008.4 1009.0 0.0
18/02:00pm 7.5 -5.2 0.5 61 2.9 W 57 72 31 39 1008.3 1008.9 0.0
18/01:30pm 8.4 -3.7 1.1 60 3.1 W 54 76 29 41 1008.4 1009.0 0.0
18/01:01pm 8.6 -4.0 1.3 60 3.1 W 57 76 31 41 1008.3 1008.9 0.0
18/01:00pm 8.6 -4.4 1.3 60 3.1 W 59 76 32 41 1008.3 1008.9 0.0
18/12:30pm 9.2 -1.9 2.3 62 3.0 WNW 50 69 27 37 1008.1 1008.8 0.0
18/12:00pm 7.9 -4.5 1.7 65 2.7 WNW 56 80 30 43 1008.6 1009.2 0.0
18/11:30am 7.8 -4.6 1.4 64 2.7 WNW 56 78 30 42 1008.5 1009.1 0.0
18/11:01am 6.9 -5.0 2.4 73 1.9 WNW 54 72 29 39 1008.9 1009.6 0.0
18/11:00am 7.0 -5.3 2.3 72 2.0 WNW 56 72 30 39 1008.8 1009.4 0.0
18/10:32am 7.4 -3.7 2.3 70 2.2 WNW 50 69 27 37 1008.9 1009.6 0.0
18/10:30am 7.2 -4.7 2.3 71 2.1 WNW 54 69 29 37 1009.0 1009.7 0.0
18/10:00am 6.2 -5.1 1.5 72 2.0 WNW 50 69 27 37 1009.2 1009.9 0.0
18/09:32am 6.1 -4.3 1.8 74 1.8 WNW 46 69 25 37 1009.0 1009.7 0.0
18/09:30am 5.8 -4.6 2.1 77 1.6 WNW 46 61 25 33 1009.1 1009.8 0.0
18/09:05am 5.5 -4.3 2.5 81 1.3 WNW 43 63 23 34 1009.1 1009.8 0.0
18/09:02am 5.1 -5.0 1.8 79 1.4 WNW 44 63 24 34 1009.1 1009.8 0.0
18/09:00am 5.1 -4.7 2.3 82 1.2 WNW 43 57 23 31 1009.1 1009.8 4.4
18/08:30am 5.3 -4.0 2.8 84 1.1 WNW 41 56 22 30 1008.8 1009.4 4.4
18/08:00am 4.5 -4.1 2.5 87 0.8 WNW 37 50 20 27 1008.6 1009.2 4.2
18/07:44am 3.4 -5.7 1.9 90 0.6 WNW 39 57 21 31 1008.8 1009.4 4.2
18/07:37am 3.6 -6.9 1.6 87 0.8 W 46 59 25 32 1008.6 1009.2 4.2
18/07:30am 4.2 -4.9 2.1 86 0.9 WNW 39 57 21 31 1008.5 1009.1 4.0
18/07:27am 4.2 -4.1 2.2 87 0.8 WNW 35 54 19 29 1008.4 1009.0 4.0
18/07:00am 3.8 -4.9 1.7 86 0.9 WNW 37 50 20 27 1008.0 1008.7 4.0
18/06:57am 3.8 -4.9 1.7 86 0.9 WNW 37 50 20 27 1007.9 1008.6 4.0
18/06:30am 3.7 -4.1 1.9 88 0.7 W 32 43 17 23 1007.7 1008.4 4.0
18/06:25am 3.7 -4.1 1.9 88 0.7 W 32 44 17 24 1007.7 1008.4 4.0
18/06:07am 4.5 -4.6 1.7 82 1.2 WNW 39 57 21 31 1007.3 1007.9 3.8
18/06:00am 4.5 -4.2 2.0 84 1.0 WNW 37 50 20 27 1007.4 1008.0 3.8
18/05:48am 4.6 -4.1 2.1 84 1.0 WNW 37 56 20 30 1007.3 1007.9 3.8
18/05:30am 4.4 -4.3 2.1 85 1.0 WNW 37 50 20 27 1007.1 1007.7 3.8
18/05:04am 4.5 -3.7 2.5 87 0.8 W 35 54 19 29 1007.1 1007.7 3.8
18/05:00am 4.4 -4.2 2.4 87 0.8 WNW 37 54 20 29 1007.2 1007.8 3.8
18/04:30am 4.8 -3.9 2.3 84 1.0 WNW 37 59 20 32 1006.7 1007.3 3.8
18/04:28am 4.7 -3.6 2.4 85 1.0 WNW 35 54 19 29 1006.8 1007.4 3.8
18/04:00am 4.8 -2.8 3.0 88 0.8 WNW 32 43 17 23 1007.0 1007.6 3.6
18/03:33am 4.6 -3.6 2.5 86 0.9 WNW 35 56 19 30 1006.7 1007.3 3.4
18/03:30am 4.8 -3.4 2.7 86 0.9 WNW 35 48 19 26 1006.7 1007.3 3.4
18/03:00am 5.3 -3.3 2.5 82 1.2 WNW 37 57 20 31 1006.7 1007.3 3.4
18/02:48am 5.5 -2.7 2.7 82 1.2 WNW 35 56 19 30 1006.9 1007.5 3.4
18/02:30am 5.6 -2.9 3.1 84 1.1 WNW 37 48 20 26 1007.1 1007.7 3.4
18/02:00am 5.4 -1.7 3.3 86 0.9 WNW 30 43 16 23 1007.1 1007.7 3.4
18/01:30am 5.1 -0.9 3.3 88 0.8 NW 24 35 13 19 1007.4 1008.0 3.4
18/01:15am 5.0 -2.2 3.2 88 0.8 WNW 30 41 16 22 1007.5 1008.2 3.4
18/01:03am 5.3 -2.4 3.2 86 0.9 WNW 33 46 18 25 1007.7 1008.4 3.4
18/01:00am 5.4 -2.3 3.3 86 0.9 WNW 33 50 18 27 1007.8 1008.5 3.4
18/12:52am 5.5 -1.2 3.7 88 0.8 WNW 28 50 15 27 1008.1 1008.8 3.4
18/12:30am 5.9 -1.7 3.7 86 1.0 WNW 33 46 18 25 1008.1 1008.8 2.8
18/12:10am 6.1 -1.5 3.8 85 1.0 WNW 33 43 18 23 1007.7 1008.4 2.8
18/12:03am 6.1 -1.3 3.9 86 1.0 WNW 32 41 17 22 1007.9 1008.6 2.8
18/12:00am 6.1 -1.4 4.4 89 0.8 WNW 33 48 18 26 1008.0 1008.7 2.6
 
Date/Time
EST
Temp
°C
App
Temp
°C
Dew
Point
°C
Rel
Hum
%
Delta-T
°C
Wind Press
QNH
hPa
Press
MSL
hPa
Rain since
9am
mm
Dir  Spd
km/h
Gust
km/h
Spd
kts
Gust
kts
17/11:52pm 6.0 -0.5 4.6 91 0.6 W 28 48 15 26 1008.4 1009.0 2.6
17/11:51pm 6.0 -0.5 4.6 91 0.6 W 28 48 15 26 1008.6 1009.2 2.6
17/11:46pm 5.9 0.5 4.5 91 0.6 W 22 28 12 15 1008.5 1009.1 2.0
17/11:30pm 6.0 0.2 4.2 88 0.8 W 24 30 13 16 1007.5 1008.2 0.8
17/11:07pm 6.0 -0.7 3.8 86 1.0 W 28 41 15 22 1007.4 1008.0 0.8
17/11:00pm 6.5 -1.5 4.0 84 1.1 W 35 56 19 30 1007.7 1008.4 0.8
17/10:53pm 6.8 -1.2 3.6 80 1.4 W 35 57 19 31 1007.5 1008.2 0.8
17/10:49pm 7.8 0.3 3.3 73 2.0 W 32 57 17 31 1007.9 1008.6 0.4
17/10:46pm 8.6 1.4 3.0 68 2.5 W 30 39 16 21 1007.7 1008.4 0.2
17/10:30pm 10.0 0.4 0.9 53 3.9 W 41 54 22 29 1007.1 1007.7 0.0
17/10:01pm 10.6 0.9 0.3 49 4.4 WNW 41 63 22 34 1006.9 1007.5 0.0
17/10:00pm 10.4 0.7 0.4 50 4.3 WNW 41 56 22 30 1006.9 1007.5 0.0
17/09:32pm 10.7 0.4 0.4 49 4.4 WNW 44 67 24 36 1007.1 1007.7 0.0
17/09:30pm 10.6 0.3 0.3 49 4.4 WNW 44 57 24 31 1007.2 1007.8 0.0
17/09:03pm 10.9 0.8 0.3 48 4.5 WNW 43 65 23 35 1007.1 1007.7 0.0
17/09:00pm 10.8 1.0 0.0 47 4.6 WNW 41 56 22 30 1007.2 1007.8 0.0
17/08:30pm 10.5 3.2 0.3 49 4.3 NW 28 39 15 21 1006.9 1007.5 0.0
17/08:13pm 10.7 2.2 0.7 50 4.3 WNW 35 54 19 29 1007.1 1007.7 0.0
17/08:00pm 10.9 2.7 0.6 49 4.4 NW 33 46 18 25 1007.0 1007.6 0.0
17/07:30pm 11.3 2.7 0.4 47 4.7 NW 35 44 19 24 1006.6 1007.2 0.0
17/07:20pm 11.3 2.3 0.4 47 4.7 NW 37 56 20 30 1006.4 1007.1 0.0
17/07:00pm 11.2 2.7 0.9 49 4.5 NW 35 50 19 27 1006.2 1006.9 0.0
17/06:30pm 11.5 2.7 1.5 50 4.4 NW 37 52 20 28 1006.3 1007.0 0.0
17/06:00pm 11.4 3.4 1.4 50 4.4 NW 33 50 18 27 1006.0 1006.6 0.0
17/05:30pm 11.0 3.0 1.5 52 4.2 NW 33 44 18 24 1005.8 1006.4 0.0
17/05:03pm 11.4 1.8 1.1 49 4.5 NW 41 59 22 32 1005.6 1006.2 0.0
17/05:00pm 11.5 1.5 1.2 49 4.5 NW 43 59 23 32 1005.5 1006.1 0.0
17/04:41pm 11.6 2.0 1.0 48 4.6 NW 41 59 22 32 1005.5 1006.1 0.0
17/04:30pm 12.1 2.1 1.1 47 4.8 NW 43 57 23 31 1005.5 1006.1 0.0
17/04:00pm 12.5 1.2 0.9 45 5.1 NW 50 72 27 39 1005.2 1005.8 0.0

Latest Capital City Observations: Canberra | Sydney | Melbourne | Brisbane | Adelaide | Perth | Hobart | Darwin

Other Formats:

Comma delimited format used in spreadsheet applications
http://www.bom.gov.au/fwo/IDN60903/IDN60903.95716.axf

JavaScript Object Notation format (JSON) in row-major order
http://www.bom.gov.au/fwo/IDN60903/IDN60903.95716.json